createdAt,value
2022-09-14T00:01:24.743Z,77.58
2022-09-14T00:03:29.138Z,78.01
2022-09-14T00:05:32.268Z,78.36
2022-09-14T00:07:35.313Z,78.41
2022-09-14T00:09:38.436Z,78.69
2022-09-14T00:11:42.836Z,79.78
2022-09-14T00:13:47.165Z,79.39
2022-09-14T00:15:51.994Z,79.73
2022-09-14T00:17:54.977Z,80.03
2022-09-14T00:19:58.051Z,79.85
2022-09-14T00:22:01.497Z,80.52
2022-09-14T00:24:05.273Z,80.32
2022-09-14T00:26:10.422Z,79.91
2022-09-14T00:28:14.774Z,80.53
2022-09-14T00:30:17.915Z,80.69
2022-09-14T00:32:20.876Z,80.70
2022-09-14T00:34:23.868Z,81.49
2022-09-14T00:36:29.300Z,81.98
2022-09-14T00:38:32.257Z,81.28
2022-09-14T00:40:35.244Z,80.18
2022-09-14T00:42:38.803Z,79.20
2022-09-14T00:45:08.180Z,79.54
2022-09-14T00:47:13.797Z,78.90
2022-09-14T00:49:19.370Z,78.77
2022-09-14T00:51:23.262Z,77.93
2022-09-14T00:53:26.462Z,78.37
2022-09-14T00:55:29.605Z,78.16
2022-09-14T00:57:37.269Z,79.95
2022-09-14T00:59:42.231Z,80.00
2022-09-14T01:01:46.767Z,79.68
2022-09-14T01:03:49.859Z,79.87
2022-09-14T01:06:01.413Z,79.75
2022-09-14T01:08:32.517Z,80.45
2022-09-14T01:10:46.035Z,80.89
2022-09-14T01:13:05.997Z,81.96
2022-09-14T01:15:14.307Z,82.27
2022-09-14T01:17:23.020Z,81.73
2022-09-14T01:19:31.741Z,82.61
2022-09-14T01:21:37.085Z,83.68
2022-09-14T01:23:44.772Z,82.81
2022-09-14T01:26:05.702Z,82.07
2022-09-14T01:28:11.927Z,82.74
2022-09-14T01:30:19.106Z,83.28
2022-09-14T01:32:26.282Z,83.41
2022-09-14T01:34:32.374Z,83.18
2022-09-14T01:36:36.700Z,82.21
2022-09-14T01:38:42.008Z,80.67
2022-09-14T01:40:47.544Z,80.02
2022-09-14T01:42:52.838Z,81.05
2022-09-14T01:45:00.097Z,81.17
2022-09-14T01:47:07.582Z,81.45
2022-09-14T01:49:15.213Z,82.21
2022-09-14T01:51:22.404Z,81.96
2022-09-14T01:53:28.163Z,82.05
2022-09-14T01:55:35.243Z,82.78
2022-09-14T01:57:42.029Z,84.75
2022-09-14T01:59:46.296Z,86.39
2022-09-14T02:01:52.585Z,88.25
2022-09-14T02:03:59.028Z,90.91
2022-09-14T02:06:07.397Z,90.94
2022-09-14T02:08:10.422Z,90.53
2022-09-14T02:10:15.162Z,91.61
2022-09-14T02:12:18.425Z,93.00
2022-09-14T02:14:21.761Z,93.56
2022-09-14T02:16:25.919Z,94.00
2022-09-14T02:18:31.469Z,94.61
2022-09-14T02:20:40.859Z,95.15
2022-09-14T02:22:43.850Z,94.92
2022-09-14T02:24:47.474Z,96.11
2022-09-14T02:26:52.425Z,96.23
2022-09-14T02:28:56.062Z,96.06
2022-09-14T02:31:08.668Z,95.83
2022-09-14T02:33:17.186Z,96.25
2022-09-14T02:35:24.796Z,95.48
2022-09-14T02:37:32.690Z,96.31
2022-09-14T02:39:41.618Z,97.69
2022-09-14T02:41:50.025Z,96.73
2022-09-14T02:44:00.906Z,98.26
2022-09-14T02:46:08.681Z,97.49
2022-09-14T02:48:16.859Z,97.81
2022-09-14T02:50:24.943Z,97.22
2022-09-14T02:52:33.387Z,98.29
2022-09-14T02:54:40.616Z,99.42
2022-09-14T02:56:44.740Z,99.83
2022-09-14T02:58:47.955Z,98.57
2022-09-14T03:00:51.779Z,99.18
2022-09-14T03:02:54.912Z,99.52
2022-09-14T03:04:58.238Z,100.00
2022-09-14T03:07:02.686Z,100.00
2022-09-14T03:09:05.690Z,100.00
2022-09-14T03:11:08.785Z,100.00
2022-09-14T03:13:12.230Z,100.00
2022-09-14T03:15:15.262Z,100.00
2022-09-14T03:17:18.212Z,100.00
2022-09-14T03:19:21.782Z,100.00
2022-09-14T03:21:24.805Z,99.71
2022-09-14T03:23:29.150Z,100.00
2022-09-14T03:25:32.442Z,100.00
2022-09-14T03:27:35.419Z,100.00
2022-09-14T03:29:38.435Z,100.00
2022-09-14T03:31:41.436Z,100.00
2022-09-14T03:33:44.560Z,100.00
2022-09-14T03:35:47.529Z,100.00
2022-09-14T03:37:50.430Z,100.00
2022-09-14T03:39:54.827Z,100.00
2022-09-14T03:41:57.853Z,100.00
2022-09-14T03:44:00.866Z,100.00
2022-09-14T03:46:06.876Z,100.00
2022-09-14T03:48:11.400Z,100.00
2022-09-14T03:50:15.727Z,100.00
2022-09-14T03:52:18.903Z,100.00
2022-09-14T03:54:21.799Z,100.00
2022-09-14T03:56:26.305Z,100.00
2022-09-14T03:58:32.654Z,100.00
2022-09-14T04:00:36.204Z,100.00
2022-09-14T04:02:39.542Z,100.00
2022-09-14T04:04:42.850Z,100.00
2022-09-14T04:06:45.850Z,100.00
2022-09-14T04:08:48.935Z,100.00
2022-09-14T04:10:52.076Z,100.00
2022-09-14T04:12:56.523Z,100.00
2022-09-14T04:14:59.544Z,100.00
2022-09-14T04:17:02.810Z,100.00
2022-09-14T04:19:06.198Z,100.00
2022-09-14T04:21:11.692Z,100.00
2022-09-14T04:23:14.613Z,100.00
2022-09-14T04:25:17.572Z,100.00
2022-09-14T04:27:20.533Z,100.00
2022-09-14T04:29:24.872Z,100.00
2022-09-14T04:31:27.942Z,100.00
2022-09-14T04:33:32.623Z,100.00
2022-09-14T04:35:37.656Z,100.00
2022-09-14T04:37:40.705Z,100.00
2022-09-14T04:39:43.807Z,100.00
2022-09-14T04:41:47.153Z,100.00
2022-09-14T04:43:51.601Z,100.00
2022-09-14T04:46:03.731Z,100.00
2022-09-14T04:48:06.821Z,100.00
2022-09-14T04:50:11.382Z,100.00
2022-09-14T04:52:14.314Z,100.00
2022-09-14T04:54:18.597Z,100.00
2022-09-14T04:56:23.226Z,100.00
2022-09-14T04:58:26.200Z,100.00
2022-09-14T05:00:29.851Z,100.00
2022-09-14T05:02:34.228Z,100.00
2022-09-14T05:04:37.340Z,100.00
2022-09-14T05:06:42.157Z,100.00
2022-09-14T05:08:45.803Z,100.00
2022-09-14T05:10:48.840Z,100.00
2022-09-14T05:12:51.795Z,100.00
2022-09-14T05:14:55.308Z,100.00
2022-09-14T05:17:01.228Z,100.00
2022-09-14T05:19:07.326Z,100.00
2022-09-14T05:21:11.880Z,100.00
2022-09-14T05:23:14.807Z,100.00
2022-09-14T05:25:17.837Z,100.00
2022-09-14T05:27:20.808Z,100.00
2022-09-14T05:29:23.838Z,100.00
2022-09-14T05:31:27.642Z,100.00
2022-09-14T05:33:31.058Z,100.00
2022-09-14T05:35:35.426Z,100.00
2022-09-14T05:37:38.369Z,100.00
2022-09-14T05:39:41.390Z,100.00
2022-09-14T05:41:44.331Z,100.00
2022-09-14T05:43:47.472Z,100.00
2022-09-14T05:45:50.430Z,100.00
2022-09-14T05:47:53.390Z,100.00
2022-09-14T05:49:56.304Z,100.00
2022-09-14T05:52:00.933Z,100.00
2022-09-14T05:54:09.293Z,100.00
2022-09-14T05:56:14.001Z,100.00
2022-09-14T05:58:17.983Z,100.00
2022-09-14T06:00:21.684Z,100.00
2022-09-14T06:02:24.818Z,100.00
2022-09-14T06:04:28.033Z,100.00
2022-09-14T06:06:32.619Z,100.00
2022-09-14T06:08:37.530Z,100.00
2022-09-14T06:10:40.699Z,100.00
2022-09-14T06:12:43.686Z,100.00
2022-09-14T06:14:46.609Z,100.00
2022-09-14T06:16:49.700Z,100.00
2022-09-14T06:18:52.779Z,100.00
2022-09-14T06:20:55.736Z,100.00
2022-09-14T06:22:58.771Z,100.00
2022-09-14T06:25:03.138Z,100.00
2022-09-14T06:27:08.884Z,100.00
2022-09-14T06:29:11.974Z,100.00
2022-09-14T06:31:17.730Z,100.00
2022-09-14T06:33:21.174Z,100.00
2022-09-14T06:35:24.165Z,100.00
2022-09-14T06:37:27.187Z,100.00
2022-09-14T06:39:30.240Z,100.00
2022-09-14T06:41:34.632Z,100.00
2022-09-14T06:43:39.787Z,100.00
2022-09-14T06:45:43.178Z,100.00
2022-09-14T06:47:46.271Z,100.00
2022-09-14T06:49:50.306Z,100.00
2022-09-14T06:51:55.985Z,100.00
2022-09-14T06:54:00.608Z,100.00
2022-09-14T06:56:05.026Z,100.00
2022-09-14T06:58:09.792Z,100.00
2022-09-14T07:00:13.930Z,100.00
2022-09-14T07:02:17.134Z,100.00
2022-09-14T07:04:20.234Z,100.00
2022-09-14T07:06:24.762Z,100.00
2022-09-14T07:08:29.460Z,100.00
2022-09-14T07:10:32.443Z,100.00
2022-09-14T07:12:35.497Z,100.00
2022-09-14T07:14:39.905Z,100.00
2022-09-14T07:16:42.957Z,100.00
2022-09-14T07:18:46.016Z,100.00
2022-09-14T07:20:49.428Z,100.00
2022-09-14T07:22:52.424Z,100.00
2022-09-14T07:24:55.442Z,100.00
2022-09-14T07:26:58.480Z,100.00
2022-09-14T07:29:03.539Z,100.00
2022-09-14T07:31:16.834Z,100.00
2022-09-14T07:33:19.933Z,100.00
2022-09-14T07:35:23.188Z,100.00
2022-09-14T07:37:26.197Z,99.61
2022-09-14T07:39:29.224Z,99.09
2022-09-14T07:41:34.118Z,99.82
2022-09-14T07:43:37.234Z,100.00
2022-09-14T07:45:40.270Z,99.23
2022-09-14T07:47:44.697Z,100.00
2022-09-14T07:49:47.830Z,100.00
2022-09-14T07:51:50.923Z,100.00
2022-09-14T07:53:54.201Z,99.26
2022-09-14T07:56:01.567Z,98.97
2022-09-14T07:58:04.533Z,98.12
2022-09-14T08:00:09.852Z,99.14
2022-09-14T08:02:15.153Z,100.00
2022-09-14T08:04:19.827Z,100.00
2022-09-14T08:06:24.947Z,99.42
2022-09-14T08:08:29.749Z,99.71
2022-09-14T08:10:35.953Z,99.58
2022-09-14T08:12:38.976Z,99.80
2022-09-14T08:14:41.955Z,99.29
2022-09-14T08:16:45.074Z,99.56
2022-09-14T08:18:48.863Z,99.66
2022-09-14T08:20:53.309Z,100.00
2022-09-14T08:22:56.228Z,100.00
2022-09-14T08:24:59.610Z,100.00
2022-09-14T08:27:02.563Z,99.74
2022-09-14T08:29:06.666Z,99.33
2022-09-14T08:31:11.505Z,98.88
2022-09-14T08:33:14.561Z,99.03
2022-09-14T08:35:17.545Z,99.52
2022-09-14T08:37:22.241Z,100.00
2022-09-14T08:39:25.182Z,99.77
2022-09-14T08:41:30.443Z,99.84
2022-09-14T08:43:33.933Z,100.00
2022-09-14T08:45:36.973Z,100.00
2022-09-14T08:47:41.907Z,100.00
2022-09-14T08:49:48.487Z,100.00
2022-09-14T08:51:51.971Z,100.00
2022-09-14T08:53:57.589Z,100.00
2022-09-14T08:56:02.361Z,100.00
2022-09-14T08:58:09.341Z,100.00
2022-09-14T09:00:15.445Z,100.00
2022-09-14T09:02:35.330Z,100.00
2022-09-14T09:04:43.316Z,100.00
2022-09-14T09:06:53.597Z,100.00
2022-09-14T09:09:05.043Z,100.00
2022-09-14T09:11:11.934Z,100.00
2022-09-14T09:13:18.871Z,100.00
2022-09-14T09:15:23.812Z,100.00
2022-09-14T09:17:31.214Z,100.00
2022-09-14T09:19:36.136Z,99.66
2022-09-14T09:21:42.337Z,99.38
2022-09-14T09:23:45.824Z,96.27
2022-09-14T09:25:57.680Z,96.08
2022-09-14T09:28:03.811Z,96.71
2022-09-14T09:30:08.303Z,95.34
2022-09-14T09:32:14.960Z,96.37
2022-09-14T09:34:38.283Z,96.45
2022-09-14T09:36:50.666Z,96.42
2022-09-14T09:38:53.611Z,97.19
2022-09-14T09:41:00.697Z,93.89
2022-09-14T09:43:09.057Z,93.52
2022-09-14T09:45:12.017Z,94.20
2022-09-14T09:47:15.256Z,93.17
2022-09-14T09:49:21.903Z,93.36
2022-09-14T09:51:30.487Z,93.14
2022-09-14T09:53:35.560Z,93.00
2022-09-14T09:55:40.379Z,93.56
2022-09-14T09:57:44.888Z,91.89
2022-09-14T09:59:48.858Z,91.05
2022-09-14T10:01:54.155Z,90.40
2022-09-14T10:04:07.228Z,89.66
2022-09-14T10:06:12.532Z,90.32
2022-09-14T10:08:16.660Z,89.84
2022-09-14T10:10:22.022Z,89.96
2022-09-14T10:12:25.690Z,89.95
2022-09-14T10:14:32.430Z,90.23
2022-09-14T10:16:38.826Z,89.44
2022-09-14T10:18:48.977Z,90.32
2022-09-14T10:21:09.854Z,89.99
2022-09-14T10:23:26.381Z,89.39
2022-09-14T10:25:29.352Z,89.40
2022-09-14T10:27:39.625Z,89.85
2022-09-14T10:29:44.093Z,89.28
2022-09-14T10:31:47.857Z,90.76
2022-09-14T10:33:53.517Z,89.95
2022-09-14T10:36:02.132Z,90.02
2022-09-14T10:38:16.483Z,89.18
2022-09-14T10:40:23.042Z,89.64
2022-09-14T10:42:32.801Z,90.20
2022-09-14T10:44:47.057Z,90.33
2022-09-14T10:47:04.684Z,90.04
2022-09-14T10:49:18.751Z,89.35
2022-09-14T10:51:31.964Z,89.67
2022-09-14T10:53:45.214Z,90.42
2022-09-14T10:55:54.322Z,90.26
2022-09-14T10:58:03.050Z,90.84
2022-09-14T11:00:12.800Z,89.70
2022-09-14T11:02:41.488Z,89.31
2022-09-14T11:04:54.859Z,90.08
2022-09-14T11:07:03.992Z,89.99
2022-09-14T11:09:17.393Z,89.02
2022-09-14T11:11:30.553Z,90.56
2022-09-14T11:13:44.042Z,89.41
2022-09-14T11:15:58.007Z,89.98
2022-09-14T11:18:09.541Z,90.28
2022-09-14T11:20:22.391Z,90.00
2022-09-14T11:22:33.847Z,88.98
2022-09-14T11:24:41.058Z,87.08
2022-09-14T11:26:47.270Z,86.57
2022-09-14T11:28:53.710Z,87.54
2022-09-14T11:31:04.173Z,86.90
2022-09-14T11:33:14.535Z,87.37
2022-09-14T11:35:20.434Z,87.96
2022-09-14T11:37:28.369Z,86.44
2022-09-14T11:39:34.036Z,85.83
2022-09-14T11:41:40.799Z,85.68
2022-09-14T11:43:47.087Z,86.47
2022-09-14T11:45:53.105Z,87.72
2022-09-14T11:48:12.475Z,86.12
2022-09-14T11:50:30.085Z,86.23
2022-09-14T11:52:34.811Z,86.89
2022-09-14T11:54:46.122Z,86.07
2022-09-14T11:56:51.251Z,86.53
2022-09-14T11:58:55.925Z,84.35
2022-09-14T12:01:11.330Z,83.75
2022-09-14T12:03:18.745Z,83.90
2022-09-14T12:05:36.291Z,83.11
2022-09-14T12:08:04.745Z,84.00
2022-09-14T12:10:19.333Z,83.57
2022-09-14T12:12:46.493Z,80.66
2022-09-14T12:14:50.332Z,81.89
2022-09-14T12:17:38.364Z,80.56
2022-09-14T12:19:42.004Z,79.82
2022-09-14T12:21:45.547Z,80.20
2022-09-14T12:23:52.253Z,78.73
2022-09-14T12:26:02.223Z,79.67
2022-09-14T12:28:27.222Z,80.02
2022-09-14T12:31:08.454Z,79.28
2022-09-14T12:33:42.766Z,78.28
2022-09-14T12:35:47.848Z,77.80
2022-09-14T12:37:50.910Z,78.31
2022-09-14T12:40:37.215Z,79.45
2022-09-14T12:42:40.295Z,79.34
2022-09-14T12:44:44.127Z,79.17
2022-09-14T12:46:48.612Z,78.93
2022-09-14T12:48:58.893Z,78.91
2022-09-14T12:51:02.571Z,78.07
2022-09-14T12:53:30.407Z,79.33
2022-09-14T12:55:48.650Z,79.65
2022-09-14T12:57:56.232Z,80.26
2022-09-14T13:00:07.146Z,79.95
2022-09-14T13:02:32.833Z,80.43
2022-09-14T13:04:38.251Z,80.82
2022-09-14T13:06:44.122Z,82.61
2022-09-14T13:08:49.079Z,82.08
2022-09-14T13:10:52.740Z,81.05
2022-09-14T13:12:56.803Z,81.88
2022-09-14T13:15:02.086Z,82.46
2022-09-14T13:17:06.303Z,84.13
2022-09-14T13:19:24.466Z,83.56
2022-09-14T13:21:27.593Z,83.55
2022-09-14T13:23:33.931Z,86.87
2022-09-14T13:25:38.579Z,88.27
2022-09-14T13:27:50.856Z,90.16
2022-09-14T13:30:03.227Z,91.98
2022-09-14T13:32:07.262Z,91.64
2022-09-14T13:34:18.723Z,91.34
2022-09-14T13:36:25.314Z,87.81
2022-09-14T13:38:31.330Z,88.27
2022-09-14T13:40:34.888Z,89.33
2022-09-14T13:42:38.006Z,88.90
2022-09-14T13:44:45.263Z,90.91
2022-09-14T13:46:48.340Z,92.52
2022-09-14T13:48:52.171Z,92.20
2022-09-14T13:50:55.394Z,91.72
2022-09-14T13:53:03.115Z,92.88
2022-09-14T13:55:21.738Z,94.14
2022-09-14T13:57:25.960Z,93.69
2022-09-14T13:59:28.913Z,93.85
2022-09-14T14:01:39.913Z,93.83
2022-09-14T14:03:48.835Z,95.02
2022-09-14T14:05:52.155Z,94.32
2022-09-14T14:07:56.555Z,94.61
2022-09-14T14:10:01.976Z,95.87
2022-09-14T14:12:05.100Z,96.51
2022-09-14T14:14:13.502Z,96.84
2022-09-14T14:16:19.672Z,96.34
2022-09-14T14:18:40.305Z,95.36
2022-09-14T14:20:43.799Z,96.82
2022-09-14T14:22:56.167Z,95.20
2022-09-14T14:25:16.558Z,96.80
2022-09-14T14:27:28.268Z,96.89
2022-09-14T14:29:31.439Z,97.06
2022-09-14T14:31:34.468Z,96.71
2022-09-14T14:33:45.571Z,96.49
2022-09-14T14:35:51.760Z,95.02
2022-09-14T14:37:55.603Z,96.81
2022-09-14T14:39:58.729Z,96.58
2022-09-14T14:42:03.636Z,97.85
2022-09-14T14:44:08.208Z,96.60
2022-09-14T14:46:11.342Z,97.06
2022-09-14T14:48:14.444Z,97.42
2022-09-14T14:50:18.834Z,96.67
2022-09-14T14:52:21.865Z,96.40
2022-09-14T14:54:24.943Z,96.71
2022-09-14T14:56:28.210Z,95.64
2022-09-14T14:58:36.347Z,96.63
2022-09-14T15:00:39.635Z,96.54
2022-09-14T15:02:42.822Z,95.56
2022-09-14T15:04:45.876Z,96.99
2022-09-14T15:06:49.097Z,96.96
2022-09-14T15:08:54.036Z,96.50
2022-09-14T15:10:57.443Z,96.43
2022-09-14T15:13:00.635Z,97.46
2022-09-14T15:15:05.789Z,96.77
2022-09-14T15:17:08.735Z,97.60
2022-09-14T15:19:11.905Z,97.21
2022-09-14T15:21:15.084Z,97.44
2022-09-14T15:23:18.108Z,98.03
2022-09-14T15:25:22.337Z,97.79
2022-09-14T15:27:25.968Z,96.70
2022-09-14T15:29:29.217Z,96.11
2022-09-14T15:31:33.957Z,97.34
2022-09-14T15:33:37.026Z,96.82
2022-09-14T15:35:40.376Z,96.67
2022-09-14T15:37:43.489Z,97.83
2022-09-14T15:39:50.061Z,97.72
2022-09-14T15:41:53.499Z,97.14
2022-09-14T15:43:56.483Z,96.49
2022-09-14T15:46:05.692Z,96.90
2022-09-14T15:48:13.313Z,97.23
2022-09-14T15:50:16.639Z,96.60
2022-09-14T15:52:19.848Z,96.65
2022-09-14T15:54:24.423Z,95.95
2022-09-14T15:56:27.767Z,97.04
2022-09-14T15:58:31.361Z,96.53
2022-09-14T16:00:34.552Z,94.90
2022-09-14T16:02:37.688Z,95.33
2022-09-14T16:04:42.151Z,95.33
2022-09-14T16:06:46.132Z,94.19
2022-09-14T16:08:49.104Z,94.98
2022-09-14T16:10:58.355Z,96.33
2022-09-14T16:13:01.378Z,95.26
2022-09-14T16:15:04.599Z,96.04
2022-09-14T16:17:08.523Z,94.34
2022-09-14T16:19:13.787Z,94.11
2022-09-14T16:21:21.279Z,93.28
2022-09-14T16:23:24.252Z,93.50
2022-09-14T16:25:27.288Z,92.50
2022-09-14T16:27:30.955Z,92.85
2022-09-14T16:29:34.008Z,91.67
2022-09-14T16:31:38.490Z,92.27
2022-09-14T16:33:43.282Z,91.45
2022-09-14T16:35:46.266Z,91.25
2022-09-14T16:37:50.646Z,91.71
2022-09-14T16:39:53.987Z,91.94
2022-09-14T16:41:57.389Z,91.81
2022-09-14T16:44:05.038Z,92.66
2022-09-14T16:46:09.683Z,92.64
2022-09-14T16:48:12.948Z,93.02
2022-09-14T16:50:16.041Z,94.38
2022-09-14T16:52:19.157Z,95.04
2022-09-14T16:54:25.444Z,94.91
2022-09-14T16:56:30.913Z,93.89
2022-09-14T16:58:34.725Z,93.94
2022-09-14T17:00:41.201Z,92.74
2022-09-14T17:02:46.728Z,93.42
2022-09-14T17:04:49.831Z,93.35
2022-09-14T17:06:55.108Z,94.16
2022-09-14T17:09:00.494Z,92.98
2022-09-14T17:11:06.088Z,92.60
2022-09-14T17:13:09.108Z,92.57
2022-09-14T17:15:12.374Z,92.02
2022-09-14T17:17:15.879Z,92.40
2022-09-14T17:19:19.104Z,92.04
2022-09-14T17:21:24.665Z,92.14
2022-09-14T17:23:28.051Z,91.46
2022-09-14T17:25:31.141Z,91.93
2022-09-14T17:27:35.572Z,91.90
2022-09-14T17:29:40.727Z,91.51
2022-09-14T17:31:44.939Z,91.55
2022-09-14T17:33:48.298Z,92.24
2022-09-14T17:35:52.668Z,91.87
2022-09-14T17:37:56.093Z,93.10
2022-09-14T17:39:59.141Z,93.26
2022-09-14T17:42:02.202Z,93.10
2022-09-14T17:44:07.750Z,93.49
2022-09-14T17:46:13.369Z,93.92
2022-09-14T17:48:16.564Z,94.29
2022-09-14T17:50:21.034Z,94.21
2022-09-14T17:52:23.984Z,94.01
2022-09-14T17:54:27.432Z,94.10
2022-09-14T17:56:31.266Z,95.01
2022-09-14T17:58:34.363Z,94.73
2022-09-14T18:00:38.746Z,94.57
2022-09-14T18:02:42.049Z,94.83
2022-09-14T18:04:48.621Z,94.63
2022-09-14T18:06:51.835Z,94.00
2022-09-14T18:08:55.748Z,93.54
2022-09-14T18:11:05.162Z,93.94
2022-09-14T18:13:08.272Z,94.09
2022-09-14T18:15:15.047Z,94.25
2022-09-14T18:17:19.993Z,95.10
2022-09-14T18:19:23.236Z,94.58
2022-09-14T18:21:26.363Z,95.22
2022-09-14T18:23:29.655Z,95.24
2022-09-14T18:25:33.583Z,95.33
2022-09-14T18:27:36.671Z,95.35
2022-09-14T18:29:40.069Z,95.49
2022-09-14T18:31:43.328Z,95.84
2022-09-14T18:33:52.487Z,96.06
2022-09-14T18:35:55.806Z,96.18
2022-09-14T18:37:58.885Z,95.85
2022-09-14T18:40:02.293Z,95.26
2022-09-14T18:42:05.801Z,96.28
2022-09-14T18:44:08.845Z,96.25
2022-09-14T18:46:12.166Z,95.86
2022-09-14T18:48:15.400Z,96.64
2022-09-14T18:50:20.482Z,97.28
2022-09-14T18:52:23.569Z,97.00
2022-09-14T18:54:27.694Z,97.56
2022-09-14T18:56:33.126Z,97.11
2022-09-14T18:58:37.809Z,97.83
2022-09-14T19:00:45.872Z,98.15
2022-09-14T19:02:52.705Z,97.81
2022-09-14T19:04:56.470Z,97.89
2022-09-14T19:07:01.156Z,97.37
2022-09-14T19:09:04.404Z,96.73
2022-09-14T19:11:08.288Z,97.55
2022-09-14T19:13:11.585Z,97.30
2022-09-14T19:15:14.960Z,97.71
2022-09-14T19:17:18.010Z,97.64
2022-09-14T19:19:21.262Z,96.85
2022-09-14T19:21:26.153Z,97.65
2022-09-14T19:23:30.960Z,98.21
2022-09-14T19:25:37.756Z,98.05
2022-09-14T19:27:40.899Z,99.04
2022-09-14T19:29:44.005Z,98.89
2022-09-14T19:31:50.968Z,98.35
2022-09-14T19:33:55.088Z,98.33
2022-09-14T19:36:03.436Z,98.16
2022-09-14T19:38:06.500Z,98.08
2022-09-14T19:40:11.632Z,97.57
2022-09-14T19:42:14.815Z,97.04
2022-09-14T19:44:18.408Z,97.46
2022-09-14T19:46:23.285Z,97.76
2022-09-14T19:48:26.499Z,98.25
2022-09-14T19:50:29.747Z,97.57
2022-09-14T19:52:32.822Z,98.66
2022-09-14T19:54:36.036Z,99.62
2022-09-14T19:56:40.441Z,99.03
2022-09-14T19:58:46.841Z,98.51
2022-09-14T20:00:53.988Z,99.99
2022-09-14T20:02:57.057Z,99.10
2022-09-14T20:05:00.213Z,99.85
2022-09-14T20:07:03.379Z,100.00
2022-09-14T20:09:08.250Z,100.00
2022-09-14T20:11:17.654Z,99.37
2022-09-14T20:13:24.312Z,98.95
2022-09-14T20:15:29.748Z,99.81
2022-09-14T20:17:32.819Z,100.00
2022-09-14T20:19:36.460Z,99.83
2022-09-14T20:21:41.281Z,100.00
2022-09-14T20:24:04.488Z,100.00
2022-09-14T20:26:09.938Z,100.00
2022-09-14T20:28:13.005Z,100.00
2022-09-14T20:30:17.637Z,100.00
2022-09-14T20:32:20.678Z,100.00
2022-09-14T20:34:23.937Z,100.00
2022-09-14T20:36:28.566Z,100.00
2022-09-14T20:38:31.631Z,100.00
2022-09-14T20:40:34.780Z,100.00
2022-09-14T20:42:37.873Z,100.00
2022-09-14T20:44:40.945Z,100.00
2022-09-14T20:46:47.006Z,100.00
2022-09-14T20:48:50.893Z,100.00
2022-09-14T20:50:54.139Z,100.00
2022-09-14T20:52:57.303Z,100.00
2022-09-14T20:55:00.458Z,100.00
2022-09-14T20:57:04.598Z,100.00
2022-09-14T20:59:09.590Z,100.00
2022-09-14T21:01:14.072Z,100.00
2022-09-14T21:03:18.541Z,100.00
2022-09-14T21:05:21.582Z,100.00
2022-09-14T21:07:25.661Z,100.00
2022-09-14T21:09:29.175Z,100.00
2022-09-14T21:11:32.525Z,100.00
2022-09-14T21:13:36.149Z,100.00
2022-09-14T21:15:39.309Z,100.00
2022-09-14T21:17:42.508Z,100.00
2022-09-14T21:19:46.980Z,100.00
2022-09-14T21:21:50.693Z,100.00
2022-09-14T21:23:55.773Z,100.00
2022-09-14T21:25:58.768Z,100.00
2022-09-14T21:28:02.004Z,100.00
2022-09-14T21:30:05.896Z,100.00
2022-09-14T21:32:09.292Z,100.00
2022-09-14T21:34:13.319Z,100.00
2022-09-14T21:36:19.294Z,100.00
2022-09-14T21:38:22.315Z,100.00
2022-09-14T21:40:25.448Z,100.00
2022-09-14T21:42:30.229Z,100.00
2022-09-14T21:44:34.998Z,100.00
2022-09-14T21:46:38.501Z,100.00
2022-09-14T21:48:41.735Z,100.00
2022-09-14T21:50:47.363Z,100.00
2022-09-14T21:52:51.939Z,100.00
2022-09-14T21:54:54.949Z,100.00
2022-09-14T21:56:57.943Z,100.00
2022-09-14T21:59:02.764Z,100.00
2022-09-14T22:01:06.169Z,100.00
2022-09-14T22:03:09.305Z,100.00
2022-09-14T22:05:12.691Z,100.00
2022-09-14T22:07:15.765Z,100.00
2022-09-14T22:09:28.256Z,100.00
2022-09-14T22:11:32.659Z,100.00
2022-09-14T22:13:35.775Z,100.00
2022-09-14T22:15:38.824Z,100.00
2022-09-14T22:17:42.065Z,100.00
2022-09-14T22:19:45.134Z,100.00
2022-09-14T22:21:48.954Z,100.00
2022-09-14T22:23:53.121Z,100.00
2022-09-14T22:25:58.249Z,100.00
2022-09-14T22:28:01.324Z,100.00
2022-09-14T22:30:04.597Z,100.00
2022-09-14T22:32:12.072Z,100.00
2022-09-14T22:34:15.307Z,100.00
2022-09-14T22:36:18.448Z,100.00
2022-09-14T22:38:22.223Z,100.00
2022-09-14T22:40:25.284Z,100.00
2022-09-14T22:42:31.437Z,100.00
2022-09-14T22:44:34.421Z,100.00
2022-09-14T22:46:37.452Z,100.00
2022-09-14T22:48:40.557Z,100.00
2022-09-14T22:50:43.818Z,100.00
2022-09-14T22:52:46.812Z,100.00
2022-09-14T22:54:49.808Z,100.00
2022-09-14T22:56:52.824Z,100.00
2022-09-14T22:58:57.482Z,100.00
2022-09-14T23:01:06.379Z,100.00
2022-09-14T23:03:10.239Z,100.00
2022-09-14T23:05:13.252Z,100.00
2022-09-14T23:07:16.239Z,100.00
2022-09-14T23:09:22.354Z,100.00
2022-09-14T23:11:25.870Z,100.00
2022-09-14T23:13:28.797Z,100.00
2022-09-14T23:15:33.190Z,100.00
2022-09-14T23:17:36.186Z,100.00
2022-09-14T23:19:39.373Z,100.00
2022-09-14T23:21:42.418Z,100.00
2022-09-14T23:23:45.538Z,100.00
2022-09-14T23:25:48.973Z,100.00
2022-09-14T23:27:52.032Z,100.00
2022-09-14T23:29:54.982Z,100.00
2022-09-14T23:31:59.344Z,100.00
2022-09-14T23:34:04.061Z,100.00
2022-09-14T23:36:07.413Z,100.00
2022-09-14T23:38:10.434Z,100.00
2022-09-14T23:40:13.965Z,100.00
2022-09-14T23:42:16.993Z,100.00
2022-09-14T23:44:20.069Z,100.00
2022-09-14T23:46:23.436Z,100.00
2022-09-14T23:48:28.164Z,100.00
2022-09-14T23:50:31.629Z,100.00
2022-09-14T23:52:34.724Z,100.00
2022-09-14T23:54:37.650Z,100.00
2022-09-14T23:56:41.041Z,100.00
2022-09-14T23:58:44.428Z,100.00
